TAF and METAR

Decoding for American and Canadian METARs and TAFs is not fully implemented.

Could not understand the following METAR

KPUB 290153Z 12009KT 10SM BKN110 26/06 A3020 RMK AO2 SLP164 T02610061

TAF for Pueblo Memorial Airport

KPUB 282324Z 2900/2924 11009KT P6SM VCTS SCT080CB BKN120 FM290600 06008KT P6SM BKN060 FM291000 VRB06KT P6SM SCT060 FM292100 14012KT P6SM SCT060 BKN130
Report created 29. mai 01:24

between 29. mai 02:00 - 29. mai 02:00

wind 9 knots from ESE (110°)